sensor_id;sensor_type;location;lat;lon;timestamp;pressure;altitude;pressure_sealevel;temperature;humidity
17209;BME280;8720;48.488;9.202;2022-07-17T00:00:31;97834.53;;;21.64;37.35
17209;BME280;8720;48.488;9.202;2022-07-17T00:02:58;97817.41;;;21.53;37.56
17209;BME280;8720;48.488;9.202;2022-07-17T00:05:28;97832.38;;;21.55;37.34
17209;BME280;8720;48.488;9.202;2022-07-17T00:07:57;97825.66;;;21.48;37.71
17209;BME280;8720;48.488;9.202;2022-07-17T00:10:24;97821.53;;;21.43;37.71
17209;BME280;8720;48.488;9.202;2022-07-17T00:12:51;97822.63;;;21.39;37.49
17209;BME280;8720;48.488;9.202;2022-07-17T00:15:19;97816.63;;;21.35;37.62
17209;BME280;8720;48.488;9.202;2022-07-17T00:17:46;97816.78;;;21.32;37.55
17209;BME280;8720;48.488;9.202;2022-07-17T00:20:13;97815.31;;;21.27;37.50
17209;BME280;8720;48.488;9.202;2022-07-17T00:22:40;97809.47;;;21.20;37.89
17209;BME280;8720;48.488;9.202;2022-07-17T00:25:10;97812.22;;;21.19;37.91
17209;BME280;8720;48.488;9.202;2022-07-17T00:27:38;97816.75;;;21.17;37.83
17209;BME280;8720;48.488;9.202;2022-07-17T00:30:06;97810.75;;;21.13;37.81
17209;BME280;8720;48.488;9.202;2022-07-17T00:32:34;97818.88;;;21.10;38.23
17209;BME280;8720;48.488;9.202;2022-07-17T00:35:02;97825.19;;;21.08;38.10
17209;BME280;8720;48.488;9.202;2022-07-17T00:37:29;97821.94;;;21.03;38.56
17209;BME280;8720;48.488;9.202;2022-07-17T00:40:00;97821.34;;;20.96;38.56
17209;BME280;8720;48.488;9.202;2022-07-17T00:42:28;97819.88;;;20.91;38.26
17209;BME280;8720;48.488;9.202;2022-07-17T00:44:56;97819.19;;;20.87;38.46
17209;BME280;8720;48.488;9.202;2022-07-17T00:47:23;97821.16;;;20.83;38.45
17209;BME280;8720;48.488;9.202;2022-07-17T00:49:50;97821.25;;;20.82;38.47
17209;BME280;8720;48.488;9.202;2022-07-17T00:52:18;97810.69;;;20.80;38.65
17209;BME280;8720;48.488;9.202;2022-07-17T00:54:46;97813.41;;;20.79;38.33
17209;BME280;8720;48.488;9.202;2022-07-17T00:57:15;97813.56;;;20.76;38.42
17209;BME280;8720;48.488;9.202;2022-07-17T00:59:44;97818.03;;;20.75;38.73
17209;BME280;8720;48.488;9.202;2022-07-17T01:02:13;97812.00;;;20.72;38.70
17209;BME280;8720;48.488;9.202;2022-07-17T01:04:41;97813.09;;;20.68;38.83
17209;BME280;8720;48.488;9.202;2022-07-17T01:07:09;97812.31;;;20.66;38.84
17209;BME280;8720;48.488;9.202;2022-07-17T01:09:37;97811.53;;;20.64;38.92
17209;BME280;8720;48.488;9.202;2022-07-17T01:12:06;97809.88;;;20.61;39.20
17209;BME280;8720;48.488;9.202;2022-07-17T01:14:35;97815.38;;;20.58;38.96
17209;BME280;8720;48.488;9.202;2022-07-17T01:17:04;97823.44;;;20.57;38.97
17209;BME280;8720;48.488;9.202;2022-07-17T01:19:31;97811.38;;;20.50;39.45
17209;BME280;8720;48.488;9.202;2022-07-17T01:22:00;97828.97;;;20.52;39.49
17209;BME280;8720;48.488;9.202;2022-07-17T01:24:28;97820.28;;;20.49;39.40
17209;BME280;8720;48.488;9.202;2022-07-17T01:26:55;97819.69;;;20.44;39.61
17209;BME280;8720;48.488;9.202;2022-07-17T01:29:23;97824.13;;;20.43;39.88
17209;BME280;8720;48.488;9.202;2022-07-17T01:31:50;97820.78;;;20.40;40.04
17209;BME280;8720;48.488;9.202;2022-07-17T01:34:19;97821.84;;;20.36;40.22
17209;BME280;8720;48.488;9.202;2022-07-17T01:36:46;97813.19;;;20.32;40.00
17209;BME280;8720;48.488;9.202;2022-07-17T01:39:15;97809.00;;;20.27;40.12
17209;BME280;8720;48.488;9.202;2022-07-17T01:41:42;97824.91;;;20.28;40.12
17209;BME280;8720;48.488;9.202;2022-07-17T01:44:09;97825.13;;;20.24;40.05
17209;BME280;8720;48.488;9.202;2022-07-17T01:46:36;97818.31;;;20.18;40.05
17209;BME280;8720;48.488;9.202;2022-07-17T01:49:03;97825.53;;;20.15;40.22
17209;BME280;8720;48.488;9.202;2022-07-17T01:51:31;97825.69;;;20.12;40.41
17209;BME280;8720;48.488;9.202;2022-07-17T01:53:58;97827.63;;;20.08;40.38
17209;BME280;8720;48.488;9.202;2022-07-17T01:56:27;97832.22;;;20.05;40.62
17209;BME280;8720;48.488;9.202;2022-07-17T01:58:54;97826.31;;;20.00;40.47
17209;BME280;8720;48.488;9.202;2022-07-17T02:01:21;97827.22;;;19.99;40.68
17209;BME280;8720;48.488;9.202;2022-07-17T02:03:49;97839.00;;;19.93;40.90
17209;BME280;8720;48.488;9.202;2022-07-17T02:06:16;97835.63;;;19.89;40.83
17209;BME280;8720;48.488;9.202;2022-07-17T02:08:43;97827.00;;;19.84;40.96
17209;BME280;8720;48.488;9.202;2022-07-17T02:11:11;97820.13;;;19.80;40.95
17209;BME280;8720;48.488;9.202;2022-07-17T02:13:39;97819.41;;;19.77;41.02
17209;BME280;8720;48.488;9.202;2022-07-17T02:16:07;97826.66;;;19.73;41.16
17209;BME280;8720;48.488;9.202;2022-07-17T02:18:34;97814.47;;;19.69;41.29
17209;BME280;8720;48.488;9.202;2022-07-17T02:21:02;97792.09;;;19.56;41.30
17209;BME280;8720;48.488;9.202;2022-07-17T02:23:29;97814.72;;;19.65;41.35
17209;BME280;8720;48.488;9.202;2022-07-17T02:25:56;97821.09;;;19.61;41.51
17209;BME280;8720;48.488;9.202;2022-07-17T02:28:24;97820.31;;;19.59;41.72
17209;BME280;8720;48.488;9.202;2022-07-17T02:30:52;97820.44;;;19.56;41.43
17209;BME280;8720;48.488;9.202;2022-07-17T02:33:20;97814.47;;;19.51;41.53
17209;BME280;8720;48.488;9.202;2022-07-17T02:35:47;97807.50;;;19.48;41.77
17209;BME280;8720;48.488;9.202;2022-07-17T02:38:14;97810.44;;;19.42;41.81
17209;BME280;8720;48.488;9.202;2022-07-17T02:40:41;97810.44;;;19.42;41.61
17209;BME280;8720;48.488;9.202;2022-07-17T02:43:08;97809.81;;;19.37;41.87
17209;BME280;8720;48.488;9.202;2022-07-17T02:45:36;97810.81;;;19.35;41.79
17209;BME280;8720;48.488;9.202;2022-07-17T02:48:05;97808.28;;;19.32;41.97
17209;BME280;8720;48.488;9.202;2022-07-17T02:50:33;97819.88;;;19.29;42.21
17209;BME280;8720;48.488;9.202;2022-07-17T02:53:00;97813.84;;;19.26;42.12
17209;BME280;8720;48.488;9.202;2022-07-17T02:55:27;97818.38;;;19.24;42.32
17209;BME280;8720;48.488;9.202;2022-07-17T02:57:55;97815.84;;;19.21;42.10
17209;BME280;8720;48.488;9.202;2022-07-17T03:00:22;97823.88;;;19.19;42.27
17209;BME280;8720;48.488;9.202;2022-07-17T03:02:49;97821.38;;;19.16;42.55
17209;BME280;8720;48.488;9.202;2022-07-17T03:05:19;97819.78;;;19.12;42.56
17209;BME280;8720;48.488;9.202;2022-07-17T03:07:46;97824.31;;;19.10;42.49
17209;BME280;8720;48.488;9.202;2022-07-17T03:10:14;97821.06;;;19.03;42.49
17209;BME280;8720;48.488;9.202;2022-07-17T03:12:42;97817.47;;;19.04;42.66
17209;BME280;8720;48.488;9.202;2022-07-17T03:15:10;97819.41;;;19.01;42.97
17209;BME280;8720;48.488;9.202;2022-07-17T03:17:39;97814.31;;;18.96;43.02
17209;BME280;8720;48.488;9.202;2022-07-17T03:20:09;97814.31;;;18.96;43.06
17209;BME280;8720;48.488;9.202;2022-07-17T03:22:37;97805.63;;;18.93;43.19
17209;BME280;8720;48.488;9.202;2022-07-17T03:25:07;97810.13;;;18.91;43.00
17209;BME280;8720;48.488;9.202;2022-07-17T03:27:34;97812.06;;;18.87;43.20
17209;BME280;8720;48.488;9.202;2022-07-17T03:30:02;97813.94;;;18.85;43.49
17209;BME280;8720;48.488;9.202;2022-07-17T03:32:30;97809.63;;;18.83;43.49
17209;BME280;8720;48.488;9.202;2022-07-17T03:34:57;97811.47;;;18.81;43.55
17209;BME280;8720;48.488;9.202;2022-07-17T03:37:24;97813.41;;;18.77;43.65
17209;BME280;8720;48.488;9.202;2022-07-17T03:39:54;97812.53;;;18.77;43.87
17209;BME280;8720;48.488;9.202;2022-07-17T03:42:22;97808.56;;;18.67;43.79
17209;BME280;8720;48.488;9.202;2022-07-17T03:44:49;97814.53;;;18.72;43.54
17209;BME280;8720;48.488;9.202;2022-07-17T03:47:16;97809.41;;;18.67;43.48
17209;BME280;8720;48.488;9.202;2022-07-17T03:49:43;97802.41;;;18.66;43.70
17209;BME280;8720;48.488;9.202;2022-07-17T03:52:10;97814.91;;;18.63;43.71
17209;BME280;8720;48.488;9.202;2022-07-17T03:54:38;97814.97;;;18.61;43.79
17209;BME280;8720;48.488;9.202;2022-07-17T03:57:06;97798.50;;;18.55;43.90
17209;BME280;8720;48.488;9.202;2022-07-17T03:59:34;97812.47;;;18.58;43.94
17209;BME280;8720;48.488;9.202;2022-07-17T04:02:01;97807.19;;;18.58;44.16
17209;BME280;8720;48.488;9.202;2022-07-17T04:04:28;97807.25;;;18.57;44.19
17209;BME280;8720;48.488;9.202;2022-07-17T04:06:55;97806.22;;;18.59;44.01
17209;BME280;8720;48.488;9.202;2022-07-17T04:09:23;97818.50;;;18.62;44.14
17209;BME280;8720;48.488;9.202;2022-07-17T04:11:50;97805.19;;;18.63;44.21
17209;BME280;8720;48.488;9.202;2022-07-17T04:14:18;97807.81;;;18.63;44.22
17209;BME280;8720;48.488;9.202;2022-07-17T04:16:46;97812.06;;;18.67;44.40
17209;BME280;8720;48.488;9.202;2022-07-17T04:19:13;97817.03;;;18.75;44.36
17209;BME280;8720;48.488;9.202;2022-07-17T04:21:40;97819.50;;;18.79;44.50
17209;BME280;8720;48.488;9.202;2022-07-17T04:24:07;97820.22;;;18.83;44.53
17209;BME280;8720;48.488;9.202;2022-07-17T04:26:35;97813.84;;;18.87;44.59
17209;BME280;8720;48.488;9.202;2022-07-17T04:29:02;97817.16;;;18.92;44.64
17209;BME280;8720;48.488;9.202;2022-07-17T04:31:31;97816.00;;;18.97;44.54
17209;BME280;8720;48.488;9.202;2022-07-17T04:33:58;97814.91;;;19.03;44.52
17209;BME280;8720;48.488;9.202;2022-07-17T04:36:25;97821.66;;;19.10;44.43
17209;BME280;8720;48.488;9.202;2022-07-17T04:38:52;97820.44;;;19.17;44.45
17209;BME280;8720;48.488;9.202;2022-07-17T04:41:20;97813.97;;;19.23;44.27
17209;BME280;8720;48.488;9.202;2022-07-17T04:43:47;97818.72;;;19.55;45.33
17209;BME280;8720;48.488;9.202;2022-07-17T04:46:14;97817.25;;;19.85;44.54
17209;BME280;8720;48.488;9.202;2022-07-17T04:48:42;97825.69;;;20.30;44.23
17209;BME280;8720;48.488;9.202;2022-07-17T04:51:10;97824.09;;;20.95;43.95
17209;BME280;8720;48.488;9.202;2022-07-17T04:53:37;97820.00;;;21.54;43.46
17209;BME280;8720;48.488;9.202;2022-07-17T04:56:05;97834.22;;;22.17;42.63
17209;BME280;8720;48.488;9.202;2022-07-17T04:58:32;97825.16;;;22.81;41.73
17209;BME280;8720;48.488;9.202;2022-07-17T05:00:59;97829.06;;;23.47;41.11
17209;BME280;8720;48.488;9.202;2022-07-17T05:03:27;97820.09;;;24.17;40.37
17209;BME280;8720;48.488;9.202;2022-07-17T05:05:55;97818.41;;;24.82;39.54
17209;BME280;8720;48.488;9.202;2022-07-17T05:08:22;97821.38;;;25.42;38.32
17209;BME280;8720;48.488;9.202;2022-07-17T05:10:49;97825.25;;;25.99;37.91
17209;BME280;8720;48.488;9.202;2022-07-17T05:13:17;97832.44;;;26.58;36.81
17209;BME280;8720;48.488;9.202;2022-07-17T05:15:44;97838.28;;;27.11;35.67
17209;BME280;8720;48.488;9.202;2022-07-17T05:18:12;97841.47;;;27.61;34.92
17209;BME280;8720;48.488;9.202;2022-07-17T05:20:40;97837.41;;;28.11;34.15
17209;BME280;8720;48.488;9.202;2022-07-17T05:23:09;97832.69;;;28.57;33.32
17209;BME280;8720;48.488;9.202;2022-07-17T05:25:36;97828.66;;;29.04;33.08
17209;BME280;8720;48.488;9.202;2022-07-17T05:28:04;97832.69;;;29.51;32.27
17209;BME280;8720;48.488;9.202;2022-07-17T05:30:31;97834.78;;;29.98;31.73
17209;BME280;8720;48.488;9.202;2022-07-17T05:32:58;97837.06;;;30.42;31.24
17209;BME280;8720;48.488;9.202;2022-07-17T05:35:26;97834.56;;;30.79;30.79
17209;BME280;8720;48.488;9.202;2022-07-17T05:37:53;97834.72;;;31.16;30.23
17209;BME280;8720;48.488;9.202;2022-07-17T05:40:21;97834.94;;;31.51;29.56
17209;BME280;8720;48.488;9.202;2022-07-17T05:42:51;97832.13;;;31.89;29.10
17209;BME280;8720;48.488;9.202;2022-07-17T05:45:20;97835.13;;;32.23;28.43
17209;BME280;8720;48.488;9.202;2022-07-17T05:47:47;97834.34;;;32.58;27.98
17209;BME280;8720;48.488;9.202;2022-07-17T05:50:14;97828.63;;;32.78;27.79
17209;BME280;8720;48.488;9.202;2022-07-17T05:52:41;97831.97;;;32.90;27.67
17209;BME280;8720;48.488;9.202;2022-07-17T05:55:09;97830.31;;;33.07;27.27
17209;BME280;8720;48.488;9.202;2022-07-17T05:57:37;97831.28;;;33.23;26.52
17209;BME280;8720;48.488;9.202;2022-07-17T06:00:06;97829.06;;;33.44;26.76
17209;BME280;8720;48.488;9.202;2022-07-17T06:02:43;97828.22;;;33.69;26.06
17209;BME280;8720;48.488;9.202;2022-07-17T06:05:10;97831.94;;;33.94;25.63
17209;BME280;8720;48.488;9.202;2022-07-17T06:07:38;97830.94;;;34.21;25.55
17209;BME280;8720;48.488;9.202;2022-07-17T06:10:07;97833.88;;;34.43;25.15
17209;BME280;8720;48.488;9.202;2022-07-17T06:12:34;97829.22;;;34.61;24.59
17209;BME280;8720;48.488;9.202;2022-07-17T06:15:04;97830.09;;;34.78;24.57
17209;BME280;8720;48.488;9.202;2022-07-17T06:17:31;97827.09;;;34.97;24.19
17209;BME280;8720;48.488;9.202;2022-07-17T06:19:58;97824.88;;;35.17;24.22
17209;BME280;8720;48.488;9.202;2022-07-17T06:22:26;97833.03;;;35.41;23.75
17209;BME280;8720;48.488;9.202;2022-07-17T06:24:53;97825.88;;;35.64;23.29
17209;BME280;8720;48.488;9.202;2022-07-17T06:27:20;97832.69;;;35.68;23.05
17209;BME280;8720;48.488;9.202;2022-07-17T06:29:48;97833.03;;;35.73;22.95
17209;BME280;8720;48.488;9.202;2022-07-17T06:32:16;97843.06;;;35.73;22.64
17209;BME280;8720;48.488;9.202;2022-07-17T06:34:44;97844.63;;;35.67;22.53
17209;BME280;8720;48.488;9.202;2022-07-17T06:37:11;97848.34;;;35.58;22.40
17209;BME280;8720;48.488;9.202;2022-07-17T06:39:38;97836.97;;;35.46;22.39
17209;BME280;8720;48.488;9.202;2022-07-17T06:42:06;97849.22;;;35.42;22.52
17209;BME280;8720;48.488;9.202;2022-07-17T06:44:34;97838.50;;;35.49;22.42
17209;BME280;8720;48.488;9.202;2022-07-17T06:47:01;97840.34;;;35.64;22.52
17209;BME280;8720;48.488;9.202;2022-07-17T06:49:30;97843.75;;;35.75;22.33
17209;BME280;8720;48.488;9.202;2022-07-17T06:51:57;97837.91;;;35.86;22.15
17209;BME280;8720;48.488;9.202;2022-07-17T06:54:25;97844.72;;;35.90;21.92
17209;BME280;8720;48.488;9.202;2022-07-17T06:56:53;97838.13;;;35.92;21.84
17209;BME280;8720;48.488;9.202;2022-07-17T06:59:20;97838.59;;;36.04;21.93
17209;BME280;8720;48.488;9.202;2022-07-17T07:01:48;97825.75;;;36.12;21.75
17209;BME280;8720;48.488;9.202;2022-07-17T07:04:15;97838.97;;;36.39;21.21
17209;BME280;8720;48.488;9.202;2022-07-17T07:06:44;97830.19;;;36.60;21.30
17209;BME280;8720;48.488;9.202;2022-07-17T07:09:11;97837.91;;;36.79;21.46
17209;BME280;8720;48.488;9.202;2022-07-17T07:11:39;97827.47;;;36.91;21.02
17209;BME280;8720;48.488;9.202;2022-07-17T07:14:07;97832.72;;;36.92;20.98
17209;BME280;8720;48.488;9.202;2022-07-17T07:16:35;97832.72;;;36.92;21.11
17209;BME280;8720;48.488;9.202;2022-07-17T07:19:03;97834.34;;;37.01;20.78
17209;BME280;8720;48.488;9.202;2022-07-17T07:21:30;97830.84;;;36.93;20.82
17209;BME280;8720;48.488;9.202;2022-07-17T07:23:59;97836.19;;;36.78;20.94
17209;BME280;8720;48.488;9.202;2022-07-17T07:26:26;97844.63;;;36.69;21.16
17209;BME280;8720;48.488;9.202;2022-07-17T07:28:54;97842.06;;;36.67;20.61
17209;BME280;8720;48.488;9.202;2022-07-17T07:31:21;97839.91;;;36.55;20.94
17209;BME280;8720;48.488;9.202;2022-07-17T07:33:48;97847.50;;;36.44;20.99
17209;BME280;8720;48.488;9.202;2022-07-17T07:36:16;97852.09;;;36.44;21.22
17209;BME280;8720;48.488;9.202;2022-07-17T07:38:43;97849.06;;;36.39;21.16
17209;BME280;8720;48.488;9.202;2022-07-17T07:41:12;97844.28;;;36.33;20.70
17209;BME280;8720;48.488;9.202;2022-07-17T07:43:40;97851.94;;;36.29;20.84
17209;BME280;8720;48.488;9.202;2022-07-17T07:46:08;97852.13;;;36.20;20.99
17209;BME280;8720;48.488;9.202;2022-07-17T07:48:35;97851.66;;;36.16;21.00
17209;BME280;8720;48.488;9.202;2022-07-17T07:51:02;97850.75;;;36.24;20.96
17209;BME280;8720;48.488;9.202;2022-07-17T07:53:30;97856.84;;;36.34;20.54
17209;BME280;8720;48.488;9.202;2022-07-17T07:55:57;97853.66;;;36.38;20.59
17209;BME280;8720;48.488;9.202;2022-07-17T07:58:26;97859.56;;;36.50;20.17
17209;BME280;8720;48.488;9.202;2022-07-17T08:00:53;97849.53;;;36.42;20.31
17209;BME280;8720;48.488;9.202;2022-07-17T08:03:20;97857.94;;;36.25;20.72
17209;BME280;8720;48.488;9.202;2022-07-17T08:05:50;97860.69;;;36.09;20.85
17209;BME280;8720;48.488;9.202;2022-07-17T08:08:17;97842.69;;;36.00;20.72
17209;BME280;8720;48.488;9.202;2022-07-17T08:10:45;97856.31;;;36.00;20.70
17209;BME280;8720;48.488;9.202;2022-07-17T08:13:12;97858.03;;;35.77;20.99
17209;BME280;8720;48.488;9.202;2022-07-17T08:15:40;97860.78;;;35.60;21.11
17209;BME280;8720;48.488;9.202;2022-07-17T08:18:08;97855.00;;;35.47;21.11
17209;BME280;8720;48.488;9.202;2022-07-17T08:20:35;97860.09;;;35.42;21.55
17209;BME280;8720;48.488;9.202;2022-07-17T08:23:02;97856.00;;;35.46;21.54
17209;BME280;8720;48.488;9.202;2022-07-17T08:25:30;97856.88;;;35.55;21.50
17209;BME280;8720;48.488;9.202;2022-07-17T08:27:58;97859.41;;;35.64;21.57
17209;BME280;8720;48.488;9.202;2022-07-17T08:30:26;97859.22;;;35.74;21.33
17209;BME280;8720;48.488;9.202;2022-07-17T08:32:55;97851.22;;;35.73;21.20
17209;BME280;8720;48.488;9.202;2022-07-17T08:35:22;97857.34;;;35.75;21.51
17209;BME280;8720;48.488;9.202;2022-07-17T08:37:52;97866.22;;;35.69;21.16
17209;BME280;8720;48.488;9.202;2022-07-17T08:40:21;97871.00;;;35.50;21.43
17209;BME280;8720;48.488;9.202;2022-07-17T08:42:50;97868.09;;;35.36;21.62
17209;BME280;8720;48.488;9.202;2022-07-17T08:45:17;97859.75;;;35.29;21.68
17209;BME280;8720;48.488;9.202;2022-07-17T08:47:46;97850.91;;;35.19;21.88
17209;BME280;8720;48.488;9.202;2022-07-17T08:50:15;97851.59;;;35.13;22.00
17209;BME280;8720;48.488;9.202;2022-07-17T08:52:42;97858.88;;;34.97;22.04
17209;BME280;8720;48.488;9.202;2022-07-17T08:55:12;97856.28;;;34.87;22.04
17209;BME280;8720;48.488;9.202;2022-07-17T08:57:41;97856.25;;;34.71;22.15
17209;BME280;8720;48.488;9.202;2022-07-17T09:00:11;97855.69;;;34.51;21.80
17209;BME280;8720;48.488;9.202;2022-07-17T09:02:40;97849.94;;;34.29;22.36
17209;BME280;8720;48.488;9.202;2022-07-17T09:05:08;97849.41;;;34.17;22.56
17209;BME280;8720;48.488;9.202;2022-07-17T09:07:47;97849.94;;;33.95;22.45
17209;BME280;8720;48.488;9.202;2022-07-17T09:10:15;97846.19;;;33.62;22.29
17209;BME280;8720;48.488;9.202;2022-07-17T09:12:42;97852.34;;;33.29;22.67
17209;BME280;8720;48.488;9.202;2022-07-17T09:15:18;97856.19;;;33.01;22.66
17209;BME280;8720;48.488;9.202;2022-07-17T09:17:50;97855.63;;;32.80;23.04
17209;BME280;8720;48.488;9.202;2022-07-17T09:20:17;97846.75;;;32.60;23.09
17209;BME280;8720;48.488;9.202;2022-07-17T09:22:56;97857.28;;;32.36;23.10
17209;BME280;8720;48.488;9.202;2022-07-17T09:25:36;97861.25;;;32.14;23.33
17209;BME280;8720;48.488;9.202;2022-07-17T09:28:06;97853.50;;;31.92;23.36
17209;BME280;8720;48.488;9.202;2022-07-17T09:30:36;97846.13;;;31.75;23.48
17209;BME280;8720;48.488;9.202;2022-07-17T09:33:07;97853.84;;;31.61;23.09
17209;BME280;8720;48.488;9.202;2022-07-17T09:35:45;97854.03;;;31.50;23.60
17209;BME280;8720;48.488;9.202;2022-07-17T09:38:26;97860.47;;;31.39;23.80
17209;BME280;8720;48.488;9.202;2022-07-17T09:41:09;97860.72;;;31.36;23.52
17209;BME280;8720;48.488;9.202;2022-07-17T09:43:39;97860.88;;;31.34;23.67
17209;BME280;8720;48.488;9.202;2022-07-17T09:46:08;97857.31;;;31.34;23.67
17209;BME280;8720;48.488;9.202;2022-07-17T09:48:43;97847.91;;;31.28;23.90
17209;BME280;8720;48.488;9.202;2022-07-17T09:51:17;97855.31;;;31.26;23.73
17209;BME280;8720;48.488;9.202;2022-07-17T09:53:48;97861.03;;;31.23;23.85
17209;BME280;8720;48.488;9.202;2022-07-17T09:56:20;97841.25;;;31.13;23.97
17209;BME280;8720;48.488;9.202;2022-07-17T09:58:50;97856.75;;;31.21;23.74
17209;BME280;8720;48.488;9.202;2022-07-17T10:01:19;97845.22;;;31.19;23.73
17209;BME280;8720;48.488;9.202;2022-07-17T10:03:47;97837.28;;;31.17;23.66
17209;BME280;8720;48.488;9.202;2022-07-17T10:06:18;97845.53;;;31.16;23.79
17209;BME280;8720;48.488;9.202;2022-07-17T10:08:47;97835.69;;;31.15;23.62
17209;BME280;8720;48.488;9.202;2022-07-17T10:11:15;97841.69;;;31.09;23.52
17209;BME280;8720;48.488;9.202;2022-07-17T10:13:46;97838.56;;;31.04;23.74
17209;BME280;8720;48.488;9.202;2022-07-17T10:16:23;97833.00;;;31.05;23.56
17209;BME280;8720;48.488;9.202;2022-07-17T10:18:51;97830.16;;;31.07;23.79
17209;BME280;8720;48.488;9.202;2022-07-17T10:21:22;97828.59;;;31.04;24.24
17209;BME280;8720;48.488;9.202;2022-07-17T10:24:08;97823.91;;;30.97;23.92
17209;BME280;8720;48.488;9.202;2022-07-17T10:26:40;97819.09;;;30.91;24.03
17209;BME280;8720;48.488;9.202;2022-07-17T10:29:30;97822.19;;;30.86;23.94
17209;BME280;8720;48.488;9.202;2022-07-17T10:32:03;97826.03;;;30.84;24.29
17209;BME280;8720;48.488;9.202;2022-07-17T10:34:44;97828.75;;;30.84;24.06
17209;BME280;8720;48.488;9.202;2022-07-17T10:37:21;97822.19;;;30.86;24.12
17209;BME280;8720;48.488;9.202;2022-07-17T10:40:04;97818.53;;;30.87;24.04
17209;BME280;8720;48.488;9.202;2022-07-17T10:42:58;97830.16;;;30.88;24.19
17209;BME280;8720;48.488;9.202;2022-07-17T10:45:32;97819.50;;;30.86;24.17
17209;BME280;8720;48.488;9.202;2022-07-17T10:48:04;97822.75;;;30.80;24.09
17209;BME280;8720;48.488;9.202;2022-07-17T10:50:35;97812.22;;;30.77;24.29
17209;BME280;8720;48.488;9.202;2022-07-17T10:53:13;97819.16;;;30.80;24.00
17209;BME280;8720;48.488;9.202;2022-07-17T10:55:47;97819.16;;;30.80;24.56
17209;BME280;8720;48.488;9.202;2022-07-17T10:58:22;97807.53;;;30.79;24.61
17209;BME280;8720;48.488;9.202;2022-07-17T11:01:06;97813.06;;;30.78;24.23
17209;BME280;8720;48.488;9.202;2022-07-17T11:03:41;97802.97;;;30.80;24.73
17209;BME280;8720;48.488;9.202;2022-07-17T11:06:13;97806.13;;;30.85;24.20
17209;BME280;8720;48.488;9.202;2022-07-17T11:08:44;97812.09;;;30.88;24.12
17209;BME280;8720;48.488;9.202;2022-07-17T11:11:14;97808.44;;;30.89;23.71
17209;BME280;8720;48.488;9.202;2022-07-17T11:13:42;97811.81;;;30.91;23.75
17209;BME280;8720;48.488;9.202;2022-07-17T11:16:09;97808.28;;;30.91;23.71
17209;BME280;8720;48.488;9.202;2022-07-17T11:18:37;97809.25;;;30.90;23.79
17209;BME280;8720;48.488;9.202;2022-07-17T11:21:12;97808.97;;;30.93;23.95
17209;BME280;8720;48.488;9.202;2022-07-17T11:23:51;97794.44;;;30.94;23.84
17209;BME280;8720;48.488;9.202;2022-07-17T11:26:21;97805.25;;;30.94;23.47
17209;BME280;8720;48.488;9.202;2022-07-17T11:28:50;97797.31;;;30.92;23.36
17209;BME280;8720;48.488;9.202;2022-07-17T11:31:21;97797.63;;;30.89;23.46
17209;BME280;8720;48.488;9.202;2022-07-17T11:33:52;97797.72;;;30.88;23.55
17209;BME280;8720;48.488;9.202;2022-07-17T11:36:29;97796.44;;;30.92;23.48
17209;BME280;8720;48.488;9.202;2022-07-17T11:39:00;97795.16;;;30.96;23.18
17209;BME280;8720;48.488;9.202;2022-07-17T11:41:34;97799.28;;;31.00;23.06
17209;BME280;8720;48.488;9.202;2022-07-17T11:44:03;97805.41;;;31.02;22.71
17209;BME280;8720;48.488;9.202;2022-07-17T11:46:32;97796.59;;;31.00;22.69
17209;BME280;8720;48.488;9.202;2022-07-17T11:49:00;97795.47;;;31.02;23.00
17209;BME280;8720;48.488;9.202;2022-07-17T11:51:41;97796.72;;;31.08;22.80
17209;BME280;8720;48.488;9.202;2022-07-17T11:54:12;97789.16;;;31.11;22.77
17209;BME280;8720;48.488;9.202;2022-07-17T11:56:51;97791.16;;;31.19;22.28
17209;BME280;8720;48.488;9.202;2022-07-17T11:59:25;97795.97;;;31.25;22.48
17209;BME280;8720;48.488;9.202;2022-07-17T12:01:52;97792.25;;;31.26;21.90
17209;BME280;8720;48.488;9.202;2022-07-17T12:04:20;97792.97;;;31.28;22.10
17209;BME280;8720;48.488;9.202;2022-07-17T12:06:59;97797.66;;;31.26;22.06
17209;BME280;8720;48.488;9.202;2022-07-17T12:09:28;97797.00;;;31.24;22.26
17209;BME280;8720;48.488;9.202;2022-07-17T12:11:56;97796.69;;;31.27;22.22
17209;BME280;8720;48.488;9.202;2022-07-17T12:14:24;97792.84;;;31.29;21.89
17209;BME280;8720;48.488;9.202;2022-07-17T12:16:51;97792.38;;;31.34;22.08
17209;BME280;8720;48.488;9.202;2022-07-17T12:19:23;97790.84;;;31.41;21.97
17209;BME280;8720;48.488;9.202;2022-07-17T12:21:55;97785.53;;;31.49;21.59
17209;BME280;8720;48.488;9.202;2022-07-17T12:24:27;97788.25;;;31.49;21.77
17209;BME280;8720;48.488;9.202;2022-07-17T12:26:58;97778.41;;;31.58;21.90
17209;BME280;8720;48.488;9.202;2022-07-17T12:29:28;97780.13;;;31.59;21.88
17209;BME280;8720;48.488;9.202;2022-07-17T12:32:05;97790.94;;;31.59;21.70
17209;BME280;8720;48.488;9.202;2022-07-17T12:34:33;97779.25;;;31.58;21.48
17209;BME280;8720;48.488;9.202;2022-07-17T12:37:00;97768.13;;;31.61;21.30
17209;BME280;8720;48.488;9.202;2022-07-17T12:39:28;97780.09;;;31.68;21.07
17209;BME280;8720;48.488;9.202;2022-07-17T12:41:57;97766.13;;;31.63;21.29
17209;BME280;8720;48.488;9.202;2022-07-17T12:44:25;97774.91;;;31.75;21.08
17209;BME280;8720;48.488;9.202;2022-07-17T12:46:52;97773.75;;;31.77;20.94
17209;BME280;8720;48.488;9.202;2022-07-17T12:49:19;97766.19;;;31.81;21.07
17209;BME280;8720;48.488;9.202;2022-07-17T12:51:47;97761.91;;;31.78;21.01
17209;BME280;8720;48.488;9.202;2022-07-17T12:54:14;97780.97;;;31.86;21.20
17209;BME280;8720;48.488;9.202;2022-07-17T12:56:41;97768.84;;;31.90;21.22
17209;BME280;8720;48.488;9.202;2022-07-17T12:59:10;97771.56;;;31.90;20.71
17209;BME280;8720;48.488;9.202;2022-07-17T13:01:37;97760.47;;;31.93;21.12
17209;BME280;8720;48.488;9.202;2022-07-17T13:04:04;97773.00;;;31.94;20.99
17209;BME280;8720;48.488;9.202;2022-07-17T13:06:31;97787.22;;;31.96;21.13
17209;BME280;8720;48.488;9.202;2022-07-17T13:08:59;97782.38;;;31.90;20.72
17209;BME280;8720;48.488;9.202;2022-07-17T13:11:27;97769.13;;;31.97;20.90
17209;BME280;8720;48.488;9.202;2022-07-17T13:13:55;97767.97;;;31.99;20.87
17209;BME280;8720;48.488;9.202;2022-07-17T13:16:23;97767.53;;;32.04;20.45
17209;BME280;8720;48.488;9.202;2022-07-17T13:18:51;97770.78;;;32.07;20.46